Time;durP1;ratioP1;P1;durP2;ratioP2;P2;SDS_P1;SDS_P2;PMS_P1;PMS_P2;Temp;Humidity;BMP_temperature;BMP_pressure;BME280_temperature;BME280_humidity;BME280_pressure;Samples;Min_cycle;Max_cycle;Signal;HPM_P1;HPM_P2
2023/07/12 00:01:18;;;;;;;;;;;;;;;18.84;93.72;95551.41;5094402;28;1027;-53
2023/07/12 00:03:44;;;;;;;;;;;;;;;18.70;93.81;95551.31;5094338;28;1043;-53
2023/07/12 00:06:14;;;;;;;;;;;;;;;18.78;93.90;95554.88;5094163;28;1100;-53
2023/07/12 00:08:41;;;;;;;;;;;;;;;18.77;94.04;95553.22;5094103;28;1906;-53
2023/07/12 00:11:13;;;;;;;;;;;;;;;18.76;93.74;95546.13;5094358;28;992;-53
2023/07/12 00:13:39;;;;;;;;;;;;;;;18.75;93.67;95553.41;5094259;28;1091;-53
2023/07/12 00:16:15;;;;;;;;;;;;;;;18.74;94.02;95546.31;5094143;28;1037;-53
2023/07/12 00:18:41;;;;;;;;;;;;;;;18.66;94.48;95533.78;5094007;28;1096;-53
2023/07/12 00:21:10;;;;;;;;;;;;;;;18.68;94.34;95531.72;5093931;28;1105;-53
2023/07/12 00:23:36;;;;;;;;;;;;;;;18.79;93.59;95534.88;5094188;28;988;-53
2023/07/12 00:26:14;;;;;;;;;;;;;;;18.73;93.30;95539.25;5093901;28;1541;-53
2023/07/12 00:28:40;;;;;;;;;;;;;;;18.50;93.64;95537.69;5093669;28;1918;-53
2023/07/12 00:31:07;;;;;;;;;;;;;;;18.33;94.97;95539.88;5093900;28;1020;-53
2023/07/12 00:33:34;;;;;;;;;;;;;;;18.32;94.25;95532.78;5092815;28;1032;-53
2023/07/12 00:36:00;;;;;;;;;;;;;;;18.35;94.93;95531.56;5093968;28;1028;-53
2023/07/12 00:38:26;;;;;;;;;;;;;;;18.44;94.47;95529.50;5093623;28;1096;-53
2023/07/12 00:40:55;;;;;;;;;;;;;;;18.45;94.89;95532.03;5093863;28;1039;-53
2023/07/12 00:43:44;;;;;;;;;;;;;;;18.35;94.24;95536.97;5093681;28;1045;-54
2023/07/12 00:46:18;;;;;;;;;;;;;;;18.54;93.77;95536.25;5085437;28;2216;-53
2023/07/12 00:48:45;;;;;;;;;;;;;;;18.52;93.82;95541.03;5093814;28;1913;-53
2023/07/12 00:51:19;;;;;;;;;;;;;;;18.48;93.81;95539.75;5093723;28;1279;-53
2023/07/12 00:53:45;;;;;;;;;;;;;;;18.46;93.25;95543.72;5093479;28;1034;-53
2023/07/12 00:56:12;;;;;;;;;;;;;;;18.34;93.20;95543.41;5093540;28;977;-53
2023/07/12 00:58:49;;;;;;;;;;;;;;;18.02;94.91;95537.63;5093494;28;1016;-53
2023/07/12 01:01:16;;;;;;;;;;;;;;;17.90;96.16;95533.78;5093705;28;1366;-53
2023/07/12 01:03:43;;;;;;;;;;;;;;;17.87;96.60;95532.31;5093682;28;1043;-53
2023/07/12 01:06:12;;;;;;;;;;;;;;;17.89;96.66;95530.25;5093563;28;1024;-53
2023/07/12 01:08:42;;;;;;;;;;;;;;;18.00;96.22;95528.84;5093468;28;1914;-53
2023/07/12 01:11:10;;;;;;;;;;;;;;;18.02;95.81;95534.06;5093414;28;1040;-53
2023/07/12 01:13:37;;;;;;;;;;;;;;;18.07;95.45;95545.13;5093295;28;1112;-53
2023/07/12 01:16:04;;;;;;;;;;;;;;;18.04;95.24;95530.16;5093574;28;1043;-53
2023/07/12 01:18:30;;;;;;;;;;;;;;;18.07;95.58;95534.31;5093226;28;1021;-53
2023/07/12 01:21:08;;;;;;;;;;;;;;;18.07;95.29;95542.44;5092233;28;971;-53
2023/07/12 01:23:34;;;;;;;;;;;;;;;17.75;96.98;95533.84;5093288;28;976;-53
2023/07/12 01:26:15;;;;;;;;;;;;;;;17.97;96.02;95531.97;5093102;28;1543;-53
2023/07/12 01:28:41;;;;;;;;;;;;;;;17.88;95.82;95535.84;5093040;28;1918;-53
2023/07/12 01:31:07;;;;;;;;;;;;;;;17.93;96.47;95539.63;5093244;28;1096;-53
2023/07/12 01:33:33;;;;;;;;;;;;;;;17.89;96.81;95535.66;5093226;28;1040;-53
2023/07/12 01:35:59;;;;;;;;;;;;;;;17.99;95.85;95542.59;5093176;28;1027;-53
2023/07/12 01:38:25;;;;;;;;;;;;;;;18.05;95.48;95541.81;5092982;28;1025;-53
2023/07/12 01:40:51;;;;;;;;;;;;;;;17.97;95.16;95541.97;5093347;28;984;-53
2023/07/12 01:43:17;;;;;;;;;;;;;;;17.99;95.46;95540.72;5092994;28;1554;-54
2023/07/12 01:45:43;;;;;;;;;;;;;;;17.94;95.49;95538.59;5095627;28;1053;-53
2023/07/12 01:48:09;;;;;;;;;;;;;;;17.77;96.17;95534.50;5096990;28;1105;-53
2023/07/12 01:50:35;;;;;;;;;;;;;;;17.70;96.91;95539.84;5096824;28;1987;-53
2023/07/12 01:53:02;;;;;;;;;;;;;;;17.70;96.92;95534.44;5096785;28;977;-53
2023/07/12 01:55:28;;;;;;;;;;;;;;;17.78;96.55;95541.59;5096926;28;1124;-53
2023/07/12 01:57:53;;;;;;;;;;;;;;;17.72;97.10;95537.78;5096864;28;1001;-53
2023/07/12 02:00:19;;;;;;;;;;;;;;;18.04;94.75;95549.09;5096762;28;1040;-53
2023/07/12 02:02:46;;;;;;;;;;;;;;;17.95;95.44;95550.28;5096667;28;964;-53
2023/07/12 02:05:12;;;;;;;;;;;;;;;17.53;97.59;95552.81;5096514;28;1033;-53
2023/07/12 02:07:38;;;;;;;;;;;;;;;17.60;98.11;95554.75;5096493;28;1076;-53
2023/07/12 02:10:18;;;;;;;;;;;;;;;17.71;97.36;95562.31;5095150;28;1914;-53
2023/07/12 02:12:44;;;;;;;;;;;;;;;17.78;96.73;95565.91;5096615;28;1078;-53
2023/07/12 02:15:12;;;;;;;;;;;;;;;17.71;96.58;95562.31;5096309;28;1087;-53
2023/07/12 02:17:38;;;;;;;;;;;;;;;17.59;97.15;95563.91;5096468;28;969;-53
2023/07/12 02:20:05;;;;;;;;;;;;;;;17.64;97.55;95559.56;5096348;28;985;-53
2023/07/12 02:22:32;;;;;;;;;;;;;;;17.51;97.68;95559.44;5096025;28;1076;-53
2023/07/12 02:24:58;;;;;;;;;;;;;;;17.42;98.36;95569.56;5096091;28;1548;-53
2023/07/12 02:27:24;;;;;;;;;;;;;;;17.53;97.85;95560.09;5095870;28;1100;-53
2023/07/12 02:29:51;;;;;;;;;;;;;;;17.52;97.35;95567.34;5095990;28;1910;-53
2023/07/12 02:32:17;;;;;;;;;;;;;;;17.29;98.39;95567.56;5095963;28;1048;-53
2023/07/12 02:34:43;;;;;;;;;;;;;;;17.23;99.18;95560.22;5095998;28;1044;-53
2023/07/12 02:37:09;;;;;;;;;;;;;;;17.28;99.17;95568.59;5095843;28;1033;-53
2023/07/12 02:39:35;;;;;;;;;;;;;;;17.43;98.44;95565.81;5096135;28;1039;-53
2023/07/12 02:42:01;;;;;;;;;;;;;;;17.49;98.01;95575.00;5095817;28;1041;-53
2023/07/12 02:44:27;;;;;;;;;;;;;;;17.59;97.65;95583.66;5095837;28;1055;-53
2023/07/12 02:46:53;;;;;;;;;;;;;;;17.65;97.51;95574.75;5095843;28;1036;-53
2023/07/12 02:49:19;;;;;;;;;;;;;;;17.50;97.36;95585.63;5095622;28;1987;-53
2023/07/12 02:51:45;;;;;;;;;;;;;;;17.56;96.67;95584.84;5095581;28;1081;-53
2023/07/12 02:54:11;;;;;;;;;;;;;;;17.47;97.46;95577.06;5095731;28;1044;-53
2023/07/12 02:56:37;;;;;;;;;;;;;;;17.48;97.23;95585.00;5094883;28;1272;-52
2023/07/12 02:59:03;;;;;;;;;;;;;;;17.49;97.35;95583.97;5095621;28;1074;-53
2023/07/12 03:01:29;;;;;;;;;;;;;;;17.35;97.13;95584.88;5095428;28;1005;-52
2023/07/12 03:03:55;;;;;;;;;;;;;;;17.16;98.44;95591.75;5095425;28;1260;-52
2023/07/12 03:06:21;;;;;;;;;;;;;;;17.22;98.22;95590.13;5095247;28;1038;-52
2023/07/12 03:08:47;;;;;;;;;;;;;;;17.38;97.42;95587.19;5095469;28;1988;-53
2023/07/12 03:11:14;;;;;;;;;;;;;;;17.54;97.37;95588.78;5095155;28;1084;-52
2023/07/12 03:13:40;;;;;;;;;;;;;;;17.64;97.49;95589.31;5095353;28;964;-52
2023/07/12 03:16:06;;;;;;;;;;;;;;;17.47;97.23;95586.03;5095247;28;964;-52
2023/07/12 03:18:33;;;;;;;;;;;;;;;17.33;97.80;95600.44;5095177;28;1084;-52
2023/07/12 03:21:00;;;;;;;;;;;;;;;17.35;97.54;95595.69;5095013;28;1039;-52
2023/07/12 03:23:26;;;;;;;;;;;;;;;17.39;97.58;95596.13;5095172;28;969;-52
2023/07/12 03:25:52;;;;;;;;;;;;;;;17.21;97.63;95602.00;5094839;28;1631;-53
2023/07/12 03:28:18;;;;;;;;;;;;;;;17.33;98.29;95605.84;5094720;28;1191;-53
2023/07/12 03:30:55;;;;;;;;;;;;;;;17.46;97.86;95605.16;5094803;28;1930;-52
2023/07/12 03:33:21;;;;;;;;;;;;;;;17.44;98.60;95609.91;5094815;28;1023;-52
2023/07/12 03:35:50;;;;;;;;;;;;;;;17.61;97.62;95613.19;5094676;28;1061;-52
2023/07/12 03:38:16;;;;;;;;;;;;;;;17.70;97.75;95607.47;5094780;28;1032;-52
2023/07/12 03:40:44;;;;;;;;;;;;;;;17.75;97.41;95607.69;5094769;28;1039;-52
2023/07/12 03:43:10;;;;;;;;;;;;;;;17.72;97.48;95610.81;5094498;28;1032;-53
2023/07/12 03:45:36;;;;;;;;;;;;;;;17.53;98.56;95611.47;5094574;28;1068;-53
2023/07/12 03:48:02;;;;;;;;;;;;;;;17.50;98.82;95611.84;5094492;28;1688;-53
2023/07/12 03:50:28;;;;;;;;;;;;;;;17.45;99.65;95606.16;5094509;28;1905;-52
2023/07/12 03:52:54;;;;;;;;;;;;;;;17.80;97.71;95612.53;5094426;28;1112;-53
2023/07/12 03:55:20;;;;;;;;;;;;;;;17.90;98.46;95615.75;5094497;28;1080;-53
2023/07/12 03:57:46;;;;;;;;;;;;;;;18.01;98.41;95624.41;5094461;28;1028;-53
2023/07/12 04:00:12;;;;;;;;;;;;;;;18.12;97.21;95605.75;5094162;28;1045;-53
2023/07/12 04:02:40;;;;;;;;;;;;;;;18.45;97.15;95625.97;5094254;28;1055;-53
2023/07/12 04:05:06;;;;;;;;;;;;;;;18.57;97.04;95627.06;5094502;28;1036;-53
2023/07/12 04:07:32;;;;;;;;;;;;;;;18.73;95.46;95623.22;5094171;28;1063;-53
2023/07/12 04:09:58;;;;;;;;;;;;;;;18.77;95.82;95629.88;5094168;28;1902;-53
2023/07/12 04:12:24;;;;;;;;;;;;;;;18.72;97.03;95632.34;5093971;28;1123;-53
2023/07/12 04:14:50;;;;;;;;;;;;;;;18.67;97.35;95624.00;5094094;28;1041;-54
2023/07/12 04:17:16;;;;;;;;;;;;;;;18.68;97.00;95618.38;5093976;28;960;-53
2023/07/12 04:19:42;;;;;;;;;;;;;;;18.78;98.37;95623.44;5093927;28;1120;-53
2023/07/12 04:22:08;;;;;;;;;;;;;;;18.84;98.27;95619.97;5094192;28;1071;-54
2023/07/12 04:24:34;;;;;;;;;;;;;;;19.06;97.77;95619.84;5093598;28;1542;-54
2023/07/12 04:27:00;;;;;;;;;;;;;;;19.12;96.77;95613.59;5093708;28;1104;-54
2023/07/12 04:29:29;;;;;;;;;;;;;;;19.40;94.74;95621.59;5093637;28;1987;-54
2023/07/12 04:31:55;;;;;;;;;;;;;;;19.57;94.87;95622.06;5093823;28;1115;-52
2023/07/12 04:34:21;;;;;;;;;;;;;;;19.55;95.02;95624.16;5093650;28;1044;-53
2023/07/12 04:36:47;;;;;;;;;;;;;;;19.97;92.65;95626.75;5093892;28;1004;-52
2023/07/12 04:39:13;;;;;;;;;;;;;;;20.03;93.56;95625.91;5093774;28;977;-53
2023/07/12 04:41:39;;;;;;;;;;;;;;;20.18;93.04;95633.84;5093786;28;1032;-53
2023/07/12 04:44:05;;;;;;;;;;;;;;;20.25;92.61;95635.50;5093635;28;1186;-53
2023/07/12 04:46:31;;;;;;;;;;;;;;;20.17;91.69;95635.72;5093543;28;966;-53
2023/07/12 04:48:57;;;;;;;;;;;;;;;20.25;91.36;95629.25;5093736;28;1987;-53
2023/07/12 04:51:23;;;;;;;;;;;;;;;20.39;90.71;95622.72;5093568;28;1886;-53
2023/07/12 04:53:49;;;;;;;;;;;;;;;20.58;89.29;95634.66;5093723;28;1025;-52
2023/07/12 04:56:15;;;;;;;;;;;;;;;20.68;88.96;95634.22;5093396;28;991;-52
2023/07/12 04:58:42;;;;;;;;;;;;;;;20.65;86.30;95634.66;5093536;28;1106;-52
2023/07/12 05:01:09;;;;;;;;;;;;;;;20.79;86.82;95630.00;5093455;28;1012;-53
2023/07/12 05:03:36;;;;;;;;;;;;;;;20.84;86.91;95632.94;5093521;28;1091;-53
2023/07/12 05:06:02;;;;;;;;;;;;;;;20.91;85.18;95632.91;5093455;28;1057;-53
2023/07/12 05:08:28;;;;;;;;;;;;;;;20.97;87.52;95626.63;5093316;28;1265;-53
2023/07/12 05:11:00;;;;;;;;;;;;;;;21.07;85.24;95627.00;5093321;28;1905;-53
2023/07/12 05:13:27;;;;;;;;;;;;;;;20.97;85.16;95630.16;5093392;28;1059;-53
2023/07/12 05:15:53;;;;;;;;;;;;;;;20.96;84.65;95631.22;5093317;28;1021;-53
2023/07/12 05:18:19;;;;;;;;;;;;;;;21.08;86.73;95628.69;5093261;28;1014;-53
2023/07/12 05:20:45;;;;;;;;;;;;;;;21.51;83.60;95624.50;5096253;28;937;-53
2023/07/12 05:23:12;;;;;;;;;;;;;;;21.59;83.78;95622.38;5097239;28;1191;-53
2023/07/12 05:25:38;;;;;;;;;;;;;;;21.75;83.61;95618.28;5097119;28;1560;-53
2023/07/12 05:28:04;;;;;;;;;;;;;;;21.72;84.27;95623.34;5097230;28;1222;-53
2023/07/12 05:30:30;;;;;;;;;;;;;;;21.63;84.55;95626.31;5097039;28;1938;-53
2023/07/12 05:32:56;;;;;;;;;;;;;;;21.82;84.03;95626.44;5097462;28;1015;-53
2023/07/12 05:35:22;;;;;;;;;;;;;;;21.89;83.50;95626.34;5097215;28;1055;-53
2023/07/12 05:37:49;;;;;;;;;;;;;;;21.98;81.61;95627.75;5097185;28;1005;-53
2023/07/12 05:40:15;;;;;;;;;;;;;;;22.13;80.91;95639.16;5097110;28;989;-53
2023/07/12 05:42:41;;;;;;;;;;;;;;;22.38;81.85;95633.72;5097057;28;1091;-53
2023/07/12 05:45:13;;;;;;;;;;;;;;;22.45;81.85;95641.88;5096946;28;1154;-53
2023/07/12 05:47:39;;;;;;;;;;;;;;;22.49;81.54;95636.81;5097182;28;1008;-53
2023/07/12 05:50:06;;;;;;;;;;;;;;;22.37;82.96;95647.59;5096940;28;1999;-53
2023/07/12 05:52:32;;;;;;;;;;;;;;;22.59;82.05;95650.75;5096893;28;1075;-53
2023/07/12 05:54:58;;;;;;;;;;;;;;;22.53;80.50;95641.56;5096894;28;1043;-53
2023/07/12 05:57:24;;;;;;;;;;;;;;;22.70;81.49;95639.09;5096696;28;1001;-53
2023/07/12 05:59:51;;;;;;;;;;;;;;;22.80;78.44;95642.16;5096661;28;1004;-53
2023/07/12 06:02:17;;;;;;;;;;;;;;;22.90;78.49;95643.53;5096808;28;957;-53
2023/07/12 06:04:43;;;;;;;;;;;;;;;23.07;79.91;95644.63;5096542;28;1041;-53
2023/07/12 06:07:09;;;;;;;;;;;;;;;23.04;78.03;95646.97;5096670;28;981;-53
2023/07/12 06:09:35;;;;;;;;;;;;;;;23.03;78.45;95651.59;5096381;28;1906;-53
2023/07/12 06:12:01;;;;;;;;;;;;;;;23.14;77.58;95650.81;5096503;28;1001;-53
2023/07/12 06:14:27;;;;;;;;;;;;;;;23.22;76.69;95648.84;5096256;28;1039;-53
2023/07/12 06:16:53;;;;;;;;;;;;;;;23.62;75.69;95656.50;5096558;28;1024;-53
2023/07/12 06:19:19;;;;;;;;;;;;;;;23.62;74.97;95645.59;5096392;28;973;-53
2023/07/12 06:21:45;;;;;;;;;;;;;;;23.73;77.10;95648.41;5096274;28;1093;-53
2023/07/12 06:24:11;;;;;;;;;;;;;;;23.81;75.77;95644.53;5096141;28;1626;-53
2023/07/12 06:26:37;;;;;;;;;;;;;;;23.83;78.88;95649.72;5094729;28;1621;-53
2023/07/12 06:29:03;;;;;;;;;;;;;;;24.24;76.35;95635.22;5096039;28;1913;-53
2023/07/12 06:31:29;;;;;;;;;;;;;;;24.33;75.63;95642.03;5094588;28;1029;-53
2023/07/12 06:33:59;;;;;;;;;;;;;;;24.41;73.93;95646.31;5095987;28;1029;-52
2023/07/12 06:36:25;;;;;;;;;;;;;;;24.60;74.57;95632.56;5096132;28;1036;-53
2023/07/12 06:38:51;;;;;;;;;;;;;;;24.57;74.42;95627.56;5095943;28;1041;-53
2023/07/12 06:41:17;;;;;;;;;;;;;;;24.68;73.39;95627.59;5095803;28;1057;-53
2023/07/12 06:43:43;;;;;;;;;;;;;;;24.94;72.66;95636.34;5095748;28;1009;-53
2023/07/12 06:46:09;;;;;;;;;;;;;;;25.03;72.82;95634.91;5096007;28;1021;-53
2023/07/12 06:48:35;;;;;;;;;;;;;;;25.17;73.24;95630.00;5095941;28;1032;-52
2023/07/12 06:51:02;;;;;;;;;;;;;;;25.23;72.79;95620.88;5095758;28;1927;-53
2023/07/12 06:53:28;;;;;;;;;;;;;;;25.46;72.77;95624.59;5095699;28;1062;-54
2023/07/12 06:55:54;;;;;;;;;;;;;;;25.66;71.11;95629.66;5095726;28;1005;-54
2023/07/12 06:58:20;;;;;;;;;;;;;;;25.60;72.45;95625.97;5095499;28;969;-53
2023/07/12 07:00:46;;;;;;;;;;;;;;;25.56;71.09;95627.56;5095702;28;1071;-53
2023/07/12 07:03:13;;;;;;;;;;;;;;;25.80;70.98;95625.56;5095537;28;1036;-53
2023/07/12 07:05:40;;;;;;;;;;;;;;;25.77;71.06;95625.22;5095401;28;1108;-53
2023/07/12 07:08:06;;;;;;;;;;;;;;;25.90;70.09;95630.38;5095389;28;1088;-53
2023/07/12 07:10:33;;;;;;;;;;;;;;;26.13;68.37;95637.66;5095259;28;1906;-53
2023/07/12 07:12:59;;;;;;;;;;;;;;;26.39;67.27;95627.13;5095270;28;1071;-54
2023/07/12 07:15:25;;;;;;;;;;;;;;;26.37;68.19;95629.28;5095425;28;969;-55
2023/07/12 07:17:51;;;;;;;;;;;;;;;26.43;69.57;95628.31;5095376;28;1051;-55
2023/07/12 07:20:17;;;;;;;;;;;;;;;26.61;67.90;95627.22;5095241;28;964;-55
2023/07/12 07:22:43;;;;;;;;;;;;;;;26.66;68.22;95628.16;5095089;28;1100;-55
2023/07/12 07:25:09;;;;;;;;;;;;;;;26.69;66.91;95621.31;5094935;28;1555;-56
2023/07/12 07:27:35;;;;;;;;;;;;;;;26.72;65.23;95622.75;5094731;28;1222;-56
2023/07/12 07:30:01;;;;;;;;;;;;;;;26.84;66.80;95621.56;5094949;28;1988;-56
2023/07/12 07:32:27;;;;;;;;;;;;;;;26.90;66.34;95621.63;5094855;28;1049;-55
2023/07/12 07:34:54;;;;;;;;;;;;;;;26.96;66.99;95617.84;5095025;28;981;-55
2023/07/12 07:37:20;;;;;;;;;;;;;;;26.97;66.34;95614.03;5094771;28;1035;-56
2023/07/12 07:39:46;;;;;;;;;;;;;;;26.94;66.76;95612.66;5094740;28;972;-56
2023/07/12 07:42:13;;;;;;;;;;;;;;;27.11;65.16;95615.34;5094179;28;981;-57
2023/07/12 07:44:39;;;;;;;;;;;;;;;27.06;66.13;95616.09;5094648;28;1057;-55
2023/07/12 07:47:05;;;;;;;;;;;;;;;27.04;63.59;95623.75;5094613;28;1163;-55
2023/07/12 07:49:31;;;;;;;;;;;;;;;27.41;64.88;95611.34;5094540;28;1902;-57
2023/07/12 07:51:57;;;;;;;;;;;;;;;27.45;64.10;95613.34;5094610;28;1032;-56
2023/07/12 07:54:23;;;;;;;;;;;;;;;27.60;64.32;95614.56;5094505;28;1052;-56
2023/07/12 07:56:49;;;;;;;;;;;;;;;27.66;64.55;95610.81;5094403;28;1065;-56
2023/07/12 07:59:15;;;;;;;;;;;;;;;27.69;63.93;95613.03;5094359;28;1577;-55
2023/07/12 08:01:41;;;;;;;;;;;;;;;27.77;61.75;95618.06;5094542;28;1055;-55
2023/07/12 08:04:08;;;;;;;;;;;;;;;27.86;64.63;95621.19;5094300;28;1053;-56
2023/07/12 08:06:35;;;;;;;;;;;;;;;27.98;61.86;95623.81;5094308;28;1047;-53
2023/07/12 08:09:01;;;;;;;;;;;;;;;28.09;61.19;95624.72;5094206;28;1993;-53
2023/07/12 08:11:27;;;;;;;;;;;;;;;28.13;60.10;95631.38;5094008;28;1135;-55
2023/07/12 08:13:53;;;;;;;;;;;;;;;28.31;60.39;95620.00;5094370;28;977;-56
2023/07/12 08:16:20;;;;;;;;;;;;;;;28.41;61.50;95614.56;5093945;28;909;-57
2023/07/12 08:18:49;;;;;;;;;;;;;;;28.44;61.61;95607.72;5094011;28;1108;-56
2023/07/12 08:21:15;;;;;;;;;;;;;;;28.52;62.23;95617.44;5094066;28;972;-55
2023/07/12 08:23:41;;;;;;;;;;;;;;;28.47;62.34;95620.13;5093978;28;1120;-55
2023/07/12 08:26:07;;;;;;;;;;;;;;;28.51;59.45;95618.50;5093853;28;1615;-55
2023/07/12 08:31:50;;;;;;;;;;;;;;;28.76;62.27;95615.97;5053569;28;1038;-56
2023/07/12 08:34:17;;;;;;;;;;;;;;;28.72;62.34;95616.75;5053394;28;1156;-55
2023/07/12 08:36:43;;;;;;;;;;;;;;;28.77;61.05;95611.28;5053431;28;968;-55
2023/07/12 08:39:09;;;;;;;;;;;;;;;28.85;61.38;95619.03;5053667;28;1051;-54
2023/07/12 08:41:37;;;;;;;;;;;;;;;29.06;62.22;95619.97;5053637;28;1032;-56
2023/07/12 08:44:03;;;;;;;;;;;;;;;29.19;59.77;95618.72;5053433;28;1104;-56
2023/07/12 08:46:30;;;;;;;;;;;;;;;29.24;60.93;95618.75;5053360;28;1054;-55
2023/07/12 08:49:00;;;;;;;;;;;;;;;29.32;62.58;95615.47;5053386;28;2005;-55
2023/07/12 08:51:27;;;;;;;;;;;;;;;29.49;61.96;95620.78;5053225;28;1050;-55
2023/07/12 08:53:54;;;;;;;;;;;;;;;29.53;62.31;95610.88;5052743;28;1125;-55
2023/07/12 08:56:20;;;;;;;;;;;;;;;29.42;60.26;95611.94;5053010;28;1329;-54
2023/07/12 08:58:47;;;;;;;;;;;;;;;29.46;61.05;95613.03;5053459;28;973;-54
2023/07/12 09:01:15;;;;;;;;;;;;;;;29.54;58.91;95608.97;5053086;28;1073;-54
2023/07/12 09:03:41;;;;;;;;;;;;;;;29.62;60.05;95597.41;5053219;28;1062;-54
2023/07/12 09:06:12;;;;;;;;;;;;;;;29.58;62.22;95596.31;5053202;28;1118;-55
2023/07/12 09:08:40;;;;;;;;;;;;;;;29.63;63.81;95588.03;5053436;28;1127;-54
2023/07/12 09:11:13;;;;;;;;;;;;;;;29.80;62.84;95585.06;5053255;28;1906;-54
2023/07/12 09:13:40;;;;;;;;;;;;;;;29.95;62.66;95589.78;5053255;28;1111;-54
2023/07/12 09:16:19;;;;;;;;;;;;;;;30.16;62.00;95583.22;5053205;28;1071;-55
2023/07/12 09:18:47;;;;;;;;;;;;;;;30.26;61.82;95581.53;5053077;28;1116;-55
2023/07/12 09:21:15;;;;;;;;;;;;;;;30.39;60.24;95578.25;5053119;28;985;-55
2023/07/12 09:23:42;;;;;;;;;;;;;;;30.35;62.14;95571.66;5052889;28;1081;-55
2023/07/12 09:26:10;;;;;;;;;;;;;;;30.51;61.04;95567.78;5052892;28;1458;-55
2023/07/12 09:28:39;;;;;;;;;;;;;;;30.40;60.41;95574.41;5052890;28;1975;-55
2023/07/12 09:31:13;;;;;;;;;;;;;;;30.40;59.58;95566.13;5084593;28;1906;-55
2023/07/12 09:33:40;;;;;;;;;;;;;;;30.46;60.60;95558.69;5093351;28;973;-55
2023/07/12 09:36:06;;;;;;;;;;;;;;;30.51;62.47;95559.50;5093198;28;969;-55
2023/07/12 09:38:35;;;;;;;;;;;;;;;30.69;63.46;95565.53;5092969;28;1025;-55
2023/07/12 09:41:08;;;;;;;;;;;;;;;30.78;60.36;95563.06;5093085;28;1008;-55
2023/07/12 09:43:37;;;;;;;;;;;;;;;30.82;59.54;95562.19;5092954;28;1011;-55
2023/07/12 09:46:06;;;;;;;;;;;;;;;30.95;60.78;95560.81;5093223;28;1113;-55
2023/07/12 09:48:40;;;;;;;;;;;;;;;31.06;60.33;95558.88;5093053;28;1034;-55
2023/07/12 09:51:18;;;;;;;;;;;;;;;31.13;59.93;95560.22;5093133;28;1910;-55
2023/07/12 09:53:52;;;;;;;;;;;;;;;31.14;58.44;95553.56;5092945;28;1045;-55
2023/07/12 09:56:22;;;;;;;;;;;;;;;31.10;58.42;95554.44;5092830;28;972;-55
2023/07/12 09:59:01;;;;;;;;;;;;;;;31.23;57.67;95548.31;5093117;28;956;-55
2023/07/12 10:01:35;;;;;;;;;;;;;;;31.37;59.36;95547.69;5092780;28;1076;-55
2023/07/12 10:04:07;;;;;;;;;;;;;;;31.46;59.55;95538.56;5092935;28;977;-55
2023/07/12 10:06:40;;;;;;;;;;;;;;;31.57;58.63;95539.34;5094872;28;1056;-55
2023/07/12 10:09:12;;;;;;;;;;;;;;;31.71;57.40;95529.28;5096399;28;1993;-55
2023/07/12 10:11:43;;;;;;;;;;;;;;;31.75;55.30;95534.25;5096640;28;1055;-56
2023/07/12 10:14:11;;;;;;;;;;;;;;;31.79;56.52;95530.59;5096494;28;1040;-55
2023/07/12 10:16:44;;;;;;;;;;;;;;;31.69;52.74;95525.97;5096456;28;1016;-54
2023/07/12 10:19:31;;;;;;;;;;;;;;;31.62;55.03;95519.13;5096189;28;1049;-55
2023/07/12 10:21:59;;;;;;;;;;;;;;;31.77;52.75;95526.50;5096157;28;1931;-54
2023/07/12 10:24:36;;;;;;;;;;;;;;;31.90;49.04;95526.66;5096178;28;1763;-54
2023/07/12 10:27:04;;;;;;;;;;;;;;;32.08;53.73;95516.03;5096142;28;1070;-54
2023/07/12 10:29:43;;;;;;;;;;;;;;;32.10;52.74;95516.59;5095661;28;1910;-54
2023/07/12 10:32:16;;;;;;;;;;;;;;;32.06;51.69;95519.13;5096329;28;1040;-54
2023/07/12 10:34:48;;;;;;;;;;;;;;;32.07;50.42;95512.47;5096203;28;1037;-54
2023/07/12 10:37:17;;;;;;;;;;;;;;;32.06;48.99;95513.59;5095854;28;1044;-54
2023/07/12 10:39:45;;;;;;;;;;;;;;;32.15;54.90;95507.44;5095926;28;1096;-54
2023/07/12 10:42:30;;;;;;;;;;;;;;;32.26;51.46;95504.28;5095712;28;1043;-54
2023/07/12 10:44:57;;;;;;;;;;;;;;;32.47;51.16;95496.59;5096051;28;1021;-54
2023/07/12 10:47:28;;;;;;;;;;;;;;;32.55;47.77;95497.09;5095835;28;1057;-54
2023/07/12 10:50:01;;;;;;;;;;;;;;;32.55;47.01;95499.84;5095591;28;1910;-54
2023/07/12 10:52:30;;;;;;;;;;;;;;;32.60;46.55;95499.84;5095685;28;981;-54
2023/07/12 10:55:02;;;;;;;;;;;;;;;32.58;49.82;95491.81;5095820;28;1236;-54
2023/07/12 10:57:36;;;;;;;;;;;;;;;32.58;48.79;95502.09;5095713;28;981;-54
2023/07/12 11:00:20;;;;;;;;;;;;;;;32.57;46.64;95492.94;5095636;28;1040;-54
2023/07/12 11:02:58;;;;;;;;;;;;;;;32.67;49.87;95489.25;5095442;28;1040;-53
2023/07/12 11:05:42;;;;;;;;;;;;;;;32.93;49.67;95486.19;5095615;28;1008;-54
2023/07/12 11:08:26;;;;;;;;;;;;;;;32.91;49.58;95485.66;5095573;28;1035;-54
2023/07/12 11:10:52;;;;;;;;;;;;;;;32.88;47.72;95482.34;5095279;28;2004;-53
2023/07/12 11:13:18;;;;;;;;;;;;;;;32.89;46.81;95483.16;5095117;28;1976;-54
2023/07/12 11:15:49;;;;;;;;;;;;;;;32.94;47.98;95477.59;5093992;28;1069;-53
2023/07/12 11:18:24;;;;;;;;;;;;;;;32.92;49.85;95482.59;5094495;28;965;-53
2023/07/12 11:20:56;;;;;;;;;;;;;;;33.05;49.29;95489.38;5095245;28;1037;-54
2023/07/12 11:23:28;;;;;;;;;;;;;;;33.06;45.55;95480.75;5095002;28;1033;-53
2023/07/12 11:26:03;;;;;;;;;;;;;;;33.10;49.66;95469.06;5094736;28;1307;-54
2023/07/12 11:28:43;;;;;;;;;;;;;;;33.07;47.42;95476.88;5095182;28;1073;-54
2023/07/12 11:31:15;;;;;;;;;;;;;;;33.15;45.49;95467.09;5094720;28;1917;-53
2023/07/12 11:33:46;;;;;;;;;;;;;;;33.15;46.44;95466.28;5094886;28;1077;-53
2023/07/12 11:36:18;;;;;;;;;;;;;;;33.17;45.39;95464.03;5094688;28;1045;-53
2023/07/12 11:38:46;;;;;;;;;;;;;;;33.38;45.59;95465.41;5094783;28;1016;-53
2023/07/12 11:41:21;;;;;;;;;;;;;;;33.28;47.40;95450.84;5094627;28;1045;-54
2023/07/12 11:43:54;;;;;;;;;;;;;;;33.24;51.30;95451.47;5094626;28;1029;-54
2023/07/12 11:46:26;;;;;;;;;;;;;;;33.03;47.32;95438.97;5094684;28;961;-54
2023/07/12 11:48:58;;;;;;;;;;;;;;;33.05;47.39;95443.09;5094622;28;1071;-54
2023/07/12 11:51:28;;;;;;;;;;;;;;;33.20;48.07;95442.09;5094436;28;1902;-54
2023/07/12 11:53:56;;;;;;;;;;;;;;;33.28;47.03;95439.75;5094717;28;981;-55
2023/07/12 11:56:22;;;;;;;;;;;;;;;33.22;47.32;95434.31;5094450;28;1067;-53
2023/07/12 11:58:48;;;;;;;;;;;;;;;33.34;47.55;95428.31;5094539;28;1293;-53
2023/07/12 12:01:15;;;;;;;;;;;;;;;33.39;45.66;95419.94;5094306;28;1062;-54
2023/07/12 12:03:42;;;;;;;;;;;;;;;33.41;47.34;95425.19;5094224;28;1313;-54
2023/07/12 12:06:12;;;;;;;;;;;;;;;33.36;45.54;95425.25;5094439;28;1052;-54
2023/07/12 12:08:40;;;;;;;;;;;;;;;33.47;46.96;95424.00;5094389;28;957;-54
2023/07/12 12:11:07;;;;;;;;;;;;;;;33.51;45.91;95419.47;5094232;28;1914;-55
2023/07/12 12:13:39;;;;;;;;;;;;;;;33.60;48.02;95414.09;5094052;28;1004;-55
2023/07/12 12:16:07;;;;;;;;;;;;;;;33.73;45.96;95420.81;5094088;28;1052;-54
2023/07/12 12:18:34;;;;;;;;;;;;;;;33.92;44.24;95424.41;5093857;28;1964;-54
2023/07/12 12:21:02;;;;;;;;;;;;;;;33.88;44.26;95423.34;5094143;28;1048;-54
2023/07/12 12:23:51;;;;;;;;;;;;;;;33.68;45.75;95410.66;5093961;28;1080;-54
2023/07/12 12:26:24;;;;;;;;;;;;;;;33.67;47.56;95405.41;5060974;28;1551;-55
2023/07/12 12:28:51;;;;;;;;;;;;;;;33.59;44.58;95416.03;5093826;28;1116;-55
2023/07/12 12:31:19;;;;;;;;;;;;;;;33.59;45.35;95407.72;5093519;28;1910;-54
2023/07/12 12:33:46;;;;;;;;;;;;;;;33.67;46.43;95406.22;5093904;28;1059;-54
2023/07/12 12:36:23;;;;;;;;;;;;;;;33.59;45.91;95415.22;5093797;28;1027;-55
2023/07/12 12:39:06;;;;;;;;;;;;;;;33.54;46.49;95399.50;5093756;28;1035;-54
2023/07/12 12:41:38;;;;;;;;;;;;;;;33.45;45.99;95395.75;5093807;28;968;-54
2023/07/12 12:44:13;;;;;;;;;;;;;;;33.57;42.66;95409.16;5092429;28;1453;-55
2023/07/12 12:46:40;;;;;;;;;;;;;;;33.61;39.26;95415.72;5093640;28;1067;-54
2023/07/12 12:49:19;;;;;;;;;;;;;;;33.62;39.04;95414.63;5093550;28;1909;-54
2023/07/12 12:51:47;;;;;;;;;;;;;;;33.65;36.79;95420.38;5093480;28;969;-54
2023/07/12 12:54:13;;;;;;;;;;;;;;;33.84;36.15;95422.31;5093719;28;1173;-54
2023/07/12 12:56:39;;;;;;;;;;;;;;;33.91;35.70;95416.38;5093632;28;980;-54
2023/07/12 12:59:08;;;;;;;;;;;;;;;33.95;32.83;95436.84;5093565;28;1016;-54
2023/07/12 13:01:34;;;;;;;;;;;;;;;33.97;33.16;95435.41;5093328;28;1063;-54
2023/07/12 13:04:01;;;;;;;;;;;;;;;34.03;32.86;95434.22;5093445;28;1063;-54
2023/07/12 13:06:27;;;;;;;;;;;;;;;34.12;32.99;95442.63;5093219;28;1041;-55